Haskells, Indiana
Current Conditions -  °F | °C
As of 4:56 AM on Monday 22 Dec 2014 (Local Time) from KVPZ Reporting Station
Haze Haze  
Wind Chill: 22°   Ceiling: 10000
Heat Index: 28°   Visibility: 5mi
Dew Point: 25°   Wind: 6mph
Humidity: 88%   Direction: 100°E
Pressure: 29.98"   Gusts: NA
Location:  41.4092°N, 86.8646°W
Report Text: KVPZ 221056Z AUTO 10005KT 5SM BR BKN100 M02/M04 A2998 RMK AO2 SLP162 T10221039 TSNO
Loading
Personal Weather Stations






























Interactive Weather Map New forecast layout! Learn more

10-Day Weather Forecast

Advertisements
Track Severe Weather on mobile